Huvudsida
METAR-TAF:

METAR-TAF

Flygplatser :

Ahwaz International Airport

Ahvaz, Iran

latitud: 31-20N, longitud: 048-40E, höjd: 20 m

Aktuellt väderrapport

Denna rapport gjordes för 20 minuter sedan, klockan 20:30 UTC
Vind 2 kt från ost/nordost
Temperatur 17°C
Fuktighet 45%
Tryck 1015 hPa
Sikt: 8000 m

METAR: OIAW 112030Z 06002KT 8000 NSC 17/05 Q1015

Tid: 00:20 (20:50 UTC)

Väderprognos

Denna rapport gjordes för 3 timmar och 20 minuter sedan, klockan 17:30 UTC
Prognos gäller från 11 kl. 18 UTC till 12 kl. 24 UTC
Vind 6 kt från väst
Sikt: 7000 m
Blir
från 11 kl. 20 UTC till 11 kl. 22 UTC
Sikt: 4000 m
torrdis
Blir
från 12 kl. 04 UTC till 12 kl. 06 UTC
Sikt: 7000 m
Blir
från 12 kl. 22 UTC till 12 kl. 24 UTC
Sikt: 4000 m
torrdis

TAF: OIAW 111730Z 1118/1224 28006KT 7000 NSC BECMG 1120/1122 4000 HZ BECMG 1204/1206 7000 NSC BECMG 1222/1224 4000 HZ

Aktuella väderrapporter och prognoser från 4000 flygplatser (METAR- och TAF-rapporter).

De tillgängliga stationerna syns som gula och röda prickar på kartan.

För musen över prickarna för att se namnen på stationerna.

Klicka sedan för att få väderrapporter och prognoser.

För att ändra kartan: Klicka på de gröna knapparna med ett svart kors på för att zooma in; den gröna knappen med ett streck på för att zooma ut; eller på de gröna pilarna för angränsande kartor.


METAR-TAF: